Time;durP1;ratioP1;P1;durP2;ratioP2;P2;SDS_P1;SDS_P2;PMS_P1;PMS_P2;Temp;Humidity;BMP_temperature;BMP_pressure;BME280_temperature;BME280_humidity;BME280_pressure;Samples;Min_cycle;Max_cycle;Signal;HPM_P1;HPM_P2
2022/08/19 00:01:24;;;;;;;15.47;13.90;;;22.30;99.90;;;;;;5075017;28;20523;-57
2022/08/19 00:03:52;;;;;;;17.90;14.57;;;22.30;99.90;;;;;;5074826;28;20448;-57
2022/08/19 00:06:19;;;;;;;16.40;14.73;;;22.30;99.90;;;;;;5074980;28;20446;-57
2022/08/19 00:08:46;;;;;;;16.10;14.40;;;22.30;99.90;;;;;;5074875;28;20484;-57
2022/08/19 00:11:13;;;;;;;17.97;14.20;;;22.30;99.90;;;;;;5074789;28;20480;-57
2022/08/19 00:13:40;;;;;;;17.00;15.23;;;22.20;99.90;;;;;;5074425;28;20451;-57
2022/08/19 00:16:09;;;;;;;17.47;15.63;;;22.30;99.90;;;;;;5074578;28;20456;-57
2022/08/19 00:18:36;;;;;;;17.20;15.37;;;22.30;99.90;;;;;;5074394;28;20463;-57
2022/08/19 00:21:09;;;;;;;14.57;13.13;;;22.30;99.90;;;;;;5074204;28;20985;-56
2022/08/19 00:23:37;;;;;;;13.90;12.50;;;22.40;99.90;;;;;;5073554;28;20435;-57
2022/08/19 00:26:05;;;;;;;16.80;15.10;;;22.40;99.90;;;;;;5074384;28;20451;-57
2022/08/19 00:28:32;;;;;;;17.53;15.77;;;22.40;99.90;;;;;;5074441;28;20567;-56
2022/08/19 00:30:59;;;;;;;15.83;14.43;;;22.30;99.90;;;;;;5073944;28;20471;-56
2022/08/19 00:33:28;;;;;;;15.50;13.87;;;22.30;99.90;;;;;;5074427;28;20450;-56
2022/08/19 00:35:56;;;;;;;17.30;15.53;;;22.30;99.90;;;;;;5074499;28;20865;-56
2022/08/19 00:38:24;;;;;;;16.93;14.90;;;22.50;99.90;;;;;;5074264;28;20813;-57
2022/08/19 00:40:51;;;;;;;15.77;14.27;;;22.40;99.90;;;;;;5074238;28;20554;-56
2022/08/19 00:43:22;;;;;;;20.40;14.97;;;22.40;99.90;;;;;;5073909;28;20970;-56
2022/08/19 00:45:49;;;;;;;15.70;14.07;;;22.30;99.90;;;;;;5073887;28;20610;-56
2022/08/19 00:48:17;;;;;;;16.93;15.13;;;22.20;99.90;;;;;;5073727;28;20488;-56
2022/08/19 00:50:47;;;;;;;16.33;14.63;;;22.10;99.90;;;;;;5074164;28;20471;-56
2022/08/19 00:53:18;;;;;;;16.70;15.00;;;22.10;99.90;;;;;;5074241;28;20436;-56
2022/08/19 00:55:48;;;;;;;16.10;14.53;;;22.10;99.90;;;;;;5074093;28;20811;-56
2022/08/19 00:58:18;;;;;;;17.07;15.37;;;22.10;99.90;;;;;;5073982;28;20455;-57
2022/08/19 01:00:46;;;;;;;15.07;13.60;;;22.20;99.90;;;;;;5073701;28;20551;-56
2022/08/19 01:03:19;;;;;;;17.10;15.40;;;22.20;99.90;;;;;;5073868;28;20866;-57
2022/08/19 01:05:49;;;;;;;16.83;14.90;;;22.20;99.90;;;;;;5073565;28;20437;-56
2022/08/19 01:08:19;;;;;;;17.13;13.43;;;22.20;99.90;;;;;;5073733;28;20447;-56
2022/08/19 01:10:50;;;;;;;16.13;14.53;;;22.20;99.90;;;;;;5073792;28;20570;-56
2022/08/19 01:13:19;;;;;;;17.83;16.03;;;22.20;99.90;;;;;;5073733;28;20429;-56
2022/08/19 01:15:51;;;;;;;19.80;15.87;;;22.30;99.90;;;;;;5073308;28;20948;-57
2022/08/19 01:18:21;;;;;;;16.67;14.37;;;22.30;99.90;;;;;;5073400;28;20891;-57
2022/08/19 01:20:50;;;;;;;17.60;15.80;;;22.20;99.90;;;;;;5073662;28;20483;-56
2022/08/19 01:23:18;;;;;;;18.93;16.03;;;22.30;99.90;;;;;;5073289;28;20942;-56
2022/08/19 01:25:49;;;;;;;17.03;15.23;;;22.30;99.90;;;;;;5073340;28;20937;-57
2022/08/19 01:28:18;;;;;;;16.40;14.77;;;22.50;99.90;;;;;;5073720;28;20440;-56
2022/08/19 01:30:46;;;;;;;17.87;15.97;;;22.40;99.90;;;;;;5073497;28;20848;-56
2022/08/19 01:33:14;;;;;;;17.20;14.70;;;22.30;99.90;;;;;;5073125;28;20531;-56
2022/08/19 01:35:42;;;;;;;17.17;14.77;;;22.30;99.90;;;;;;5073189;28;20439;-56
2022/08/19 01:38:12;;;;;;;19.60;15.73;;;22.20;99.90;;;;;;5073525;28;20445;-56
2022/08/19 01:40:42;;;;;;;19.13;16.30;;;22.20;99.90;;;;;;5073295;28;20575;-56
2022/08/19 01:43:09;;;;;;;34.63;16.00;;;22.20;99.90;;;;;;5072933;28;20476;-57
2022/08/19 01:45:39;;;;;;;18.60;15.67;;;22.10;99.90;;;;;;5073509;28;20448;-56
2022/08/19 01:48:07;;;;;;;18.67;16.70;;;22.10;99.90;;;;;;5073361;28;20834;-56
2022/08/19 01:50:35;;;;;;;18.03;15.67;;;22.20;99.90;;;;;;5073163;28;20488;-56
2022/08/19 01:53:05;;;;;;;18.90;16.03;;;22.10;99.90;;;;;;5073443;28;20861;-56
2022/08/19 01:55:32;;;;;;;17.87;15.97;;;22.10;99.90;;;;;;5073079;28;20952;-55
2022/08/19 01:58:03;;;;;;;18.23;16.33;;;22.10;99.90;;;;;;5073221;28;20456;-56
2022/08/19 02:00:32;;;;;;;18.17;16.27;;;22.10;99.90;;;;;;5072855;28;20906;-56
2022/08/19 02:03:00;;;;;;;17.27;15.50;;;22.10;99.90;;;;;;5073201;28;20452;-56
2022/08/19 02:05:28;;;;;;;17.73;15.87;;;22.10;99.90;;;;;;5072854;28;20499;-56
2022/08/19 02:07:56;;;;;;;19.10;17.20;;;22.10;99.90;;;;;;5073141;28;20444;-56
2022/08/19 02:10:24;;;;;;;19.47;17.50;;;22.10;99.90;;;;;;5072940;28;20520;-57
2022/08/19 02:12:51;;;;;;;18.90;16.90;;;21.90;99.90;;;;;;5073102;28;20431;-57
2022/08/19 02:15:21;;;;;;;19.83;17.73;;;21.90;99.90;;;;;;5073105;28;20475;-57
2022/08/19 02:17:49;;;;;;;20.77;18.60;;;21.90;99.90;;;;;;5073417;28;20476;-56
2022/08/19 02:20:17;;;;;;;19.53;17.43;;;21.90;99.90;;;;;;5072924;28;20963;-57
2022/08/19 02:22:45;;;;;;;20.70;17.03;;;21.90;99.90;;;;;;5072676;28;20472;-56
2022/08/19 02:25:13;;;;;;;19.80;17.33;;;21.80;99.90;;;;;;5072610;28;21023;-56
2022/08/19 02:27:41;;;;;;;22.47;17.47;;;21.90;99.90;;;;;;5073001;28;20448;-57
2022/08/19 02:30:12;;;;;;;21.30;18.17;;;21.90;99.90;;;;;;5072447;28;20486;-56
2022/08/19 02:32:41;;;;;;;19.73;17.63;;;22.00;99.90;;;;;;5072980;28;20490;-57
2022/08/19 02:35:09;;;;;;;18.77;16.87;;;21.90;99.90;;;;;;5072933;28;20984;-56
2022/08/19 02:40:21;;;;;;;20.43;18.47;;;21.90;99.90;;;;;;5072519;28;20439;-56
2022/08/19 02:42:48;;;;;;;21.63;17.40;;;21.90;99.90;;;;;;5072456;28;20484;-56
2022/08/19 02:45:15;;;;;;;21.50;17.90;;;21.80;99.90;;;;;;5072920;28;20435;-56
2022/08/19 02:47:44;;;;;;;20.43;18.37;;;21.70;99.90;;;;;;5076212;28;20444;-57
2022/08/19 02:50:12;;;;;;;21.47;19.10;;;21.70;99.90;;;;;;5076289;28;20480;-57
2022/08/19 02:52:39;;;;;;;22.07;18.73;;;21.70;99.90;;;;;;5076217;28;20539;-56
2022/08/19 02:55:08;;;;;;;23.57;18.50;;;21.70;99.90;;;;;;5076497;28;20531;-56
2022/08/19 02:57:35;;;;;;;21.17;18.83;;;21.60;99.90;;;;;;5076272;28;20462;-56
2022/08/19 03:00:06;;;;;;;23.70;20.67;;;21.60;99.90;;;;;;5075887;28;20945;-56
2022/08/19 03:02:33;;;;;;;20.87;18.67;;;21.60;99.90;;;;;;5076402;28;20436;-56
2022/08/19 03:05:03;;;;;;;21.97;19.20;;;21.60;99.90;;;;;;5076172;28;20805;-56
2022/08/19 03:07:30;;;;;;;22.53;20.20;;;21.70;99.90;;;;;;5076111;28;20543;-56
2022/08/19 03:09:57;;;;;;;21.00;18.83;;;21.70;99.90;;;;;;5075745;28;20506;-57
2022/08/19 03:12:24;;;;;;;23.17;20.67;;;21.60;99.90;;;;;;5076269;28;20910;-56
2022/08/19 03:14:52;;;;;;;22.23;20.00;;;21.60;99.90;;;;;;5075982;28;20448;-56
2022/08/19 03:17:20;;;;;;;23.23;20.23;;;21.60;99.90;;;;;;5076084;28;20449;-56
2022/08/19 03:19:47;;;;;;;24.50;21.73;;;21.40;99.90;;;;;;5075883;28;20451;-56
2022/08/19 03:22:15;;;;;;;24.43;21.57;;;21.40;99.90;;;;;;5075761;28;20464;-57
2022/08/19 03:24:43;;;;;;;27.30;22.10;;;21.40;99.90;;;;;;5075679;28;20927;-57
2022/08/19 03:27:10;;;;;;;25.30;22.50;;;21.30;99.90;;;;;;5075546;28;20455;-57
2022/08/19 03:29:39;;;;;;;23.70;21.27;;;21.30;99.90;;;;;;5075619;28;20491;-56
2022/08/19 03:32:07;;;;;;;26.93;21.63;;;21.20;99.90;;;;;;5075307;28;20468;-56
2022/08/19 03:34:37;;;;;;;23.43;21.03;;;21.20;99.90;;;;;;5075470;28;20543;-57
2022/08/19 03:37:06;;;;;;;23.10;20.80;;;21.20;99.90;;;;;;5075612;28;20448;-57
2022/08/19 03:39:37;;;;;;;24.83;22.17;;;21.10;99.90;;;;;;5075233;28;20448;-57
2022/08/19 03:42:05;;;;;;;23.13;20.83;;;21.00;99.90;;;;;;5075395;28;20491;-57
2022/08/19 03:44:33;;;;;;;24.67;22.10;;;21.00;99.90;;;;;;5075176;28;20463;-57
2022/08/19 03:47:01;;;;;;;26.27;23.47;;;21.00;99.90;;;;;;5075364;28;20536;-57
2022/08/19 03:49:30;;;;;;;24.80;21.67;;;21.10;99.90;;;;;;5075109;28;21020;-57
2022/08/19 03:52:00;;;;;;;25.10;21.63;;;21.00;99.90;;;;;;5075055;28;20547;-58
2022/08/19 03:54:27;;;;;;;26.27;22.07;;;21.10;99.90;;;;;;5074907;28;20806;-57
2022/08/19 03:56:58;;;;;;;25.97;23.17;;;21.10;99.90;;;;;;5074669;28;20455;-57
2022/08/19 03:59:28;;;;;;;24.77;21.63;;;21.00;99.90;;;;;;5075555;28;20444;-56
2022/08/19 04:01:57;;;;;;;26.27;23.50;;;21.00;99.90;;;;;;5074952;28;20469;-57
2022/08/19 04:04:24;;;;;;;24.50;21.90;;;21.00;99.90;;;;;;5075011;28;20857;-56
2022/08/19 04:06:52;;;;;;;23.63;21.10;;;21.00;99.90;;;;;;5074836;28;20453;-56
2022/08/19 04:09:20;;;;;;;30.10;24.83;;;20.90;99.90;;;;;;5074805;28;20444;-57
2022/08/19 04:11:49;;;;;;;21.50;19.40;;;21.00;99.90;;;;;;5074975;28;20448;-57
2022/08/19 04:14:20;;;;;;;25.87;22.30;;;21.00;99.90;;;;;;5074512;28;20453;-56
2022/08/19 04:16:48;;;;;;;26.40;22.50;;;21.20;99.90;;;;;;5074946;28;20435;-56
2022/08/19 04:19:16;;;;;;;23.00;20.60;;;21.50;99.90;;;;;;5074646;28;20440;-56
2022/08/19 04:21:45;;;;;;;28.13;24.93;;;21.40;99.90;;;;;;5074312;28;20449;-57
2022/08/19 04:24:13;;;;;;;25.37;21.37;;;21.30;99.90;;;;;;5074404;28;20487;-56
2022/08/19 04:26:41;;;;;;;29.50;23.37;;;21.30;99.90;;;;;;5074312;28;20435;-56
2022/08/19 04:29:10;;;;;;;25.57;22.87;;;21.20;99.90;;;;;;5074555;28;20476;-56
2022/08/19 04:31:40;;;;;;;26.83;22.97;;;21.20;99.90;;;;;;5074141;28;20570;-56
2022/08/19 04:34:11;;;;;;;27.37;24.47;;;21.20;99.90;;;;;;5074550;28;20459;-56
2022/08/19 04:36:39;;;;;;;25.00;22.30;;;21.10;99.90;;;;;;5074435;28;20435;-55
2022/08/19 04:39:08;;;;;;;28.27;23.30;;;20.90;99.90;;;;;;5074048;28;20454;-57
2022/08/19 04:44:21;;;;;;;26.73;22.13;;;21.10;99.90;;;;;;5074028;28;20458;-56
2022/08/19 04:46:54;;;;;;;25.00;22.23;;;21.00;99.90;;;;;;5074146;28;20432;-56
2022/08/19 04:49:23;;;;;;;28.37;25.37;;;21.10;99.90;;;;;;5074176;28;20451;-55
2022/08/19 04:51:54;;;;;;;23.33;20.97;;;21.10;99.90;;;;;;5073691;28;20480;-56
2022/08/19 04:54:23;;;;;;;27.10;24.20;;;21.10;99.90;;;;;;5074160;28;20458;-57
2022/08/19 04:56:51;;;;;;;28.63;24.03;;;21.00;99.90;;;;;;5073990;28;20447;-57
2022/08/19 04:59:19;;;;;;;27.37;24.07;;;21.00;99.90;;;;;;5073648;28;20963;-56
2022/08/19 05:01:49;;;;;;;26.33;23.60;;;21.10;99.90;;;;;;5073739;28;20472;-58
2022/08/19 05:04:20;;;;;;;26.90;23.77;;;21.20;99.90;;;;;;5073849;28;20813;-57
2022/08/19 05:06:48;;;;;;;29.17;26.10;;;21.20;99.90;;;;;;5073826;28;20449;-57
2022/08/19 05:09:16;;;;;;;25.53;22.83;;;21.20;99.90;;;;;;5073015;28;20440;-57
2022/08/19 05:11:44;;;;;;;22.93;20.40;;;21.10;99.90;;;;;;5073849;28;20488;-57
2022/08/19 05:14:13;;;;;;;27.40;23.80;;;21.10;99.90;;;;;;5073603;28;20498;-57
2022/08/19 05:16:41;;;;;;;26.80;24.00;;;21.10;99.90;;;;;;5073659;28;20444;-56
2022/08/19 05:24:39;;;;;;;24.90;22.30;;;21.20;99.90;;;;;;5073578;28;20416;-56
2022/08/19 05:27:06;;;;;;;27.50;23.17;;;21.30;99.90;;;;;;5073166;28;20934;-56
2022/08/19 05:29:35;;;;;;;22.90;20.60;;;21.30;99.90;;;;;;5073181;28;20448;-56
2022/08/19 05:32:04;;;;;;;26.03;23.20;;;21.60;99.90;;;;;;5073357;28;20495;-56
2022/08/19 05:34:32;;;;;;;27.80;23.77;;;21.80;99.90;;;;;;5073065;28;20452;-56
2022/08/19 05:37:04;;;;;;;22.70;20.37;;;21.70;99.90;;;;;;5073342;28;20551;-57
2022/08/19 05:39:33;;;;;;;25.07;22.37;;;21.60;99.90;;;;;;5073334;28;20517;-56
2022/08/19 05:42:03;;;;;;;25.73;22.77;;;21.50;99.90;;;;;;5073280;28;21069;-55
2022/08/19 05:44:32;;;;;;;26.77;22.20;;;21.50;99.90;;;;;;5073142;28;20818;-55
2022/08/19 05:46:59;;;;;;;24.77;22.13;;;21.40;99.90;;;;;;5073221;28;20543;-56
2022/08/19 05:49:28;;;;;;;25.43;22.87;;;21.30;99.90;;;;;;5072935;28;21006;-56
2022/08/19 05:51:56;;;;;;;24.63;21.67;;;21.40;99.90;;;;;;5072943;28;20510;-56
2022/08/19 05:54:24;;;;;;;25.23;22.60;;;21.40;99.90;;;;;;5073079;28;20452;-56
2022/08/19 05:56:53;;;;;;;26.30;23.67;;;21.40;99.90;;;;;;5073371;28;20795;-56
2022/08/19 05:59:21;;;;;;;26.40;23.50;;;21.40;99.90;;;;;;5072816;28;20482;-56
2022/08/19 06:01:51;;;;;;;25.67;22.93;;;21.40;99.90;;;;;;5072548;28;21093;-56
2022/08/19 06:04:19;;;;;;;26.90;24.03;;;21.20;99.90;;;;;;5072435;28;20926;-56
2022/08/19 06:06:47;;;;;;;27.07;22.87;;;21.20;99.90;;;;;;5072854;28;20445;-56
2022/08/19 06:09:14;;;;;;;25.10;22.37;;;21.30;99.90;;;;;;5072677;28;20509;-56
2022/08/19 06:11:45;;;;;;;28.60;23.90;;;21.30;99.90;;;;;;5072885;28;20494;-56
2022/08/19 06:14:15;;;;;;;24.13;21.83;;;21.40;99.90;;;;;;5072554;28;20428;-57
2022/08/19 06:16:44;;;;;;;19.97;18.07;;;21.40;99.90;;;;;;5072563;28;20977;-56
2022/08/19 06:19:14;;;;;;;21.83;19.60;;;21.50;99.90;;;;;;5072630;28;20505;-56
2022/08/19 06:21:43;;;;;;;24.20;21.53;;;21.70;99.90;;;;;;5076652;28;20464;-56
2022/08/19 06:24:12;;;;;;;27.20;23.40;;;21.70;99.90;;;;;;5076842;28;20480;-56
2022/08/19 06:26:45;;;;;;;27.50;21.40;;;21.50;99.90;;;;;;5076707;28;20531;-56
2022/08/19 06:29:14;;;;;;;23.80;21.23;;;21.50;99.90;;;;;;5076365;28;20772;-56
2022/08/19 06:31:44;;;;;;;21.50;19.20;;;21.60;99.90;;;;;;5076576;28;20522;-56
2022/08/19 06:34:12;;;;;;;18.23;16.50;;;21.70;99.90;;;;;;5076288;28;20958;-56
2022/08/19 06:36:42;;;;;;;23.93;21.43;;;22.10;99.90;;;;;;5076218;28;20484;-56
2022/08/19 06:39:12;;;;;;;22.73;20.30;;;22.10;99.90;;;;;;5076174;28;20423;-56
2022/08/19 06:41:44;;;;;;;23.10;20.60;;;21.80;99.90;;;;;;5076386;28;20476;-56
2022/08/19 06:44:12;;;;;;;27.60;21.60;;;21.90;99.90;;;;;;5076317;28;20417;-56
2022/08/19 06:46:41;;;;;;;18.43;16.60;;;21.70;99.90;;;;;;5075915;28;20454;-56
2022/08/19 06:49:09;;;;;;;24.57;21.97;;;21.60;99.90;;;;;;5076361;28;20440;-56
2022/08/19 06:51:37;;;;;;;26.27;23.13;;;21.70;99.90;;;;;;5075796;28;20534;-56
2022/08/19 06:54:04;;;;;;;27.53;24.47;;;21.80;99.90;;;;;;5076016;28;20439;-56
2022/08/19 06:56:33;;;;;;;28.33;25.17;;;21.60;99.90;;;;;;5076040;28;20799;-56
2022/08/19 06:59:03;;;;;;;26.63;23.93;;;21.40;99.90;;;;;;5075887;28;20931;-56
2022/08/19 07:01:30;;;;;;;26.17;23.37;;;21.20;99.90;;;;;;5075732;28;20460;-56
2022/08/19 07:03:58;;;;;;;27.20;24.20;;;21.20;99.90;;;;;;5075818;28;20444;-57
2022/08/19 07:06:25;;;;;;;33.93;25.30;;;21.00;99.90;;;;;;5075946;28;20501;-56
2022/08/19 07:08:52;;;;;;;26.93;24.03;;;20.90;99.90;;;;;;5076029;28;20531;-56
2022/08/19 07:11:20;;;;;;;24.33;21.73;;;20.90;99.90;;;;;;5075627;28;20494;-55
2022/08/19 07:13:48;;;;;;;28.10;25.13;;;20.90;99.90;;;;;;5075657;28;20452;-55
2022/08/19 07:16:19;;;;;;;28.33;23.60;;;21.20;99.90;;;;;;5075411;28;20480;-56
2022/08/19 07:18:46;;;;;;;23.17;20.80;;;21.20;99.90;;;;;;5075730;28;20452;-56
2022/08/19 07:21:16;;;;;;;26.17;22.93;;;21.30;99.90;;;;;;5075676;28;20460;-57
2022/08/19 07:23:43;;;;;;;27.10;24.10;;;21.30;99.90;;;;;;5075304;28;20451;-57
2022/08/19 07:26:13;;;;;;;24.97;22.57;;;21.10;99.90;;;;;;5075142;28;20452;-56
2022/08/19 07:28:40;;;;;;;28.33;22.60;;;21.20;99.90;;;;;;5075236;28;20451;-57
2022/08/19 07:31:08;;;;;;;24.90;22.27;;;21.10;99.90;;;;;;5074586;28;20490;-56
2022/08/19 07:33:37;;;;;;;24.40;21.77;;;21.20;99.90;;;;;;5075292;28;20497;-57
2022/08/19 07:36:05;;;;;;;25.23;22.53;;;21.10;99.90;;;;;;5075363;28;20444;-56
2022/08/19 07:38:33;;;;;;;26.23;20.57;;;21.00;99.90;;;;;;5075433;28;20492;-57
2022/08/19 07:41:00;;;;;;;24.67;22.23;;;21.10;99.90;;;;;;5075251;28;20487;-57
2022/08/19 07:43:28;;;;;;;22.83;20.43;;;21.00;99.90;;;;;;5074782;28;20538;-56
2022/08/19 07:45:57;;;;;;;22.33;20.03;;;21.00;99.90;;;;;;5075062;28;20539;-56
2022/08/19 07:48:24;;;;;;;25.33;22.67;;;21.10;99.90;;;;;;5075043;28;20433;-56
2022/08/19 07:50:54;;;;;;;28.40;23.00;;;21.10;99.90;;;;;;5074674;28;20488;-56
2022/08/19 07:53:22;;;;;;;24.93;22.00;;;21.10;99.90;;;;;;5074794;28;20532;-56
2022/08/19 07:55:49;;;;;;;23.33;21.10;;;21.10;99.90;;;;;;5075159;28;20519;-56
2022/08/19 07:58:23;;;;;;;24.17;21.67;;;21.10;99.90;;;;;;5074839;28;20448;-56
2022/08/19 08:00:51;;;;;;;22.67;20.23;;;21.20;99.90;;;;;;5074902;28;20499;-56
2022/08/19 08:03:20;;;;;;;23.13;20.80;;;21.50;99.90;;;;;;5074909;28;20448;-56
2022/08/19 08:09:15;;;;;;;23.73;21.23;;;21.60;99.90;;;;;;5074902;28;20461;-55
2022/08/19 08:11:49;;;;;;;22.23;19.97;;;21.80;99.90;;;;;;5074601;28;20484;-56
2022/08/19 08:14:19;;;;;;;21.50;19.30;;;21.90;99.90;;;;;;5074828;28;20429;-56
2022/08/19 08:16:47;;;;;;;23.67;20.77;;;22.00;99.90;;;;;;5074252;28;20490;-55
2022/08/19 08:19:15;;;;;;;20.83;18.83;;;21.70;99.90;;;;;;5074544;28;20483;-56
2022/08/19 08:21:44;;;;;;;21.87;18.50;;;21.50;99.90;;;;;;5074574;28;20472;-56
2022/08/19 08:24:12;;;;;;;20.37;18.00;;;21.40;99.90;;;;;;5074518;28;20444;-56
2022/08/19 08:26:39;;;;;;;23.83;20.97;;;21.30;99.90;;;;;;5073914;28;20518;-56
2022/08/19 08:29:07;;;;;;;22.27;19.27;;;21.60;99.90;;;;;;5074051;28;20458;-56
2022/08/19 08:31:34;;;;;;;22.47;20.13;;;21.60;99.90;;;;;;5073923;28;20530;-56
2022/08/19 08:34:02;;;;;;;21.00;19.00;;;21.50;99.90;;;;;;5073697;28;20551;-56
2022/08/19 08:36:33;;;;;;;19.40;17.53;;;21.50;99.90;;;;;;5074139;28;20803;-57
2022/08/19 08:39:01;;;;;;;21.53;19.40;;;21.50;99.90;;;;;;5073918;28;20916;-56
2022/08/19 08:41:36;;;;;;;22.00;19.30;;;21.60;99.90;;;;;;5073901;28;20563;-56
2022/08/19 08:44:05;;;;;;;20.27;18.00;;;21.60;99.90;;;;;;5072570;28;20483;-57
2022/08/19 08:46:39;;;;;;;19.77;17.83;;;21.70;99.90;;;;;;5073520;28;20935;-56
2022/08/19 08:49:20;;;;;;;22.80;20.37;;;21.80;99.90;;;;;;5074219;28;20452;-56
2022/08/19 08:51:51;;;;;;;23.23;20.67;;;21.90;99.90;;;;;;5073638;28;21032;-56
2022/08/19 08:54:25;;;;;;;22.50;20.20;;;22.00;99.90;;;;;;5073581;28;20435;-56
2022/08/19 08:56:54;;;;;;;21.17;18.43;;;21.90;99.90;;;;;;5073922;28;20511;-56
2022/08/19 08:59:27;;;;;;;23.50;21.00;;;21.80;99.90;;;;;;5073779;28;20452;-57
2022/08/19 09:01:54;;;;;;;24.20;20.93;;;21.90;99.90;;;;;;5073713;28;20471;-56
2022/08/19 09:04:22;;;;;;;20.20;18.00;;;22.00;99.90;;;;;;5073467;28;20452;-57
2022/08/19 09:06:55;;;;;;;22.87;20.50;;;21.80;99.90;;;;;;5073488;28;20497;-56
2022/08/19 09:09:34;;;;;;;23.50;21.20;;;21.60;99.90;;;;;;5073510;28;20439;-56
2022/08/19 09:12:09;;;;;;;26.17;20.77;;;21.40;99.90;;;;;;5073858;28;20490;-56
2022/08/19 09:14:45;;;;;;;22.00;19.70;;;21.40;99.90;;;;;;5073294;28;20467;-56
2022/08/19 09:17:13;;;;;;;22.67;20.37;;;21.50;99.90;;;;;;5073292;28;20428;-56
2022/08/19 09:19:51;;;;;;;23.30;20.80;;;21.50;99.90;;;;;;5073308;28;20518;-56
2022/08/19 09:22:21;;;;;;;22.20;19.80;;;21.60;99.90;;;;;;5073560;28;20424;-56
2022/08/19 09:24:50;;;;;;;16.63;15.07;;;21.60;99.90;;;;;;5073625;28;20472;-57
2022/08/19 09:27:17;;;;;;;20.50;18.40;;;21.80;99.90;;;;;;5073576;28;20792;-57
2022/08/19 09:29:44;;;;;;;18.77;17.00;;;22.00;99.90;;;;;;5073155;28;20819;-56
2022/08/19 09:32:12;;;;;;;21.13;17.10;;;22.00;99.90;;;;;;5073120;28;20570;-57
2022/08/19 09:34:39;;;;;;;21.37;17.83;;;22.10;99.90;;;;;;5072938;28;20452;-56
2022/08/19 09:37:06;;;;;;;15.67;14.00;;;22.20;99.90;;;;;;5073009;28;20458;-57
2022/08/19 09:39:33;;;;;;;17.80;16.00;;;22.40;99.90;;;;;;5073294;28;20957;-56
2022/08/19 09:42:03;;;;;;;22.63;16.30;;;22.50;99.90;;;;;;5073010;28;20816;-56
2022/08/19 09:44:30;;;;;;;18.60;16.70;;;22.60;99.90;;;;;;5072797;28;20433;-56
2022/08/19 09:46:57;;;;;;;19.70;16.70;;;22.60;99.90;;;;;;5073189;28;20456;-56
2022/08/19 09:49:24;;;;;;;17.70;15.87;;;22.50;99.90;;;;;;5072870;28;20958;-56
2022/08/19 09:51:54;;;;;;;15.67;14.07;;;22.70;99.90;;;;;;5073072;28;20488;-56
2022/08/19 09:54:22;;;;;;;15.97;14.40;;;22.80;99.90;;;;;;5072814;28;20429;-56
2022/08/19 09:56:50;;;;;;;16.67;15.10;;;22.90;99.90;;;;;;5073300;28;20452;-56
2022/08/19 09:59:18;;;;;;;23.23;17.70;;;22.90;99.90;;;;;;5073104;28;20736;-56
2022/08/19 10:01:45;;;;;;;15.27;13.73;;;22.80;99.90;;;;;;5072823;28;20461;-57
2022/08/19 10:04:13;;;;;;;15.77;14.37;;;22.70;99.90;;;;;;5072943;28;20452;-56
2022/08/19 10:06:42;;;;;;;16.07;14.60;;;22.90;99.90;;;;;;5072719;28;20456;-56
2022/08/19 10:09:10;;;;;;;16.33;14.63;;;23.00;99.90;;;;;;5073092;28;20448;-56
2022/08/19 10:11:40;;;;;;;13.43;12.27;;;23.00;99.90;;;;;;5073126;28;20488;-57
2022/08/19 10:14:08;;;;;;;16.67;14.80;;;22.90;99.90;;;;;;5072623;28;21021;-56
2022/08/19 10:16:38;;;;;;;15.53;14.03;;;22.80;99.90;;;;;;5072716;28;20449;-57
2022/08/19 10:19:06;;;;;;;19.50;14.70;;;22.80;99.90;;;;;;5073132;28;20440;-57
2022/08/19 10:21:35;;;;;;;15.40;13.90;;;23.10;99.90;;;;;;5072672;28;20471;-57
2022/08/19 10:24:05;;;;;;;15.47;13.97;;;22.90;99.90;;;;;;5072783;28;20785;-57
2022/08/19 10:26:35;;;;;;;15.83;14.33;;;22.90;99.90;;;;;;5072940;28;20451;-56
2022/08/19 10:29:04;;;;;;;14.40;13.00;;;22.90;99.90;;;;;;5073000;28;20502;-57
2022/08/19 10:31:33;;;;;;;16.90;15.00;;;22.80;99.90;;;;;;5072695;28;20472;-56
2022/08/19 10:34:02;;;;;;;13.77;12.30;;;23.10;99.90;;;;;;5072730;28;20475;-57
2022/08/19 10:36:31;;;;;;;14.87;12.93;;;23.20;99.90;;;;;;5072614;28;20517;-57
2022/08/19 10:39:02;;;;;;;18.17;14.07;;;23.20;99.90;;;;;;5072791;28;20455;-57
2022/08/19 10:41:31;;;;;;;14.83;13.47;;;23.20;99.90;;;;;;5072998;28;20522;-57
2022/08/19 10:44:03;;;;;;;13.73;12.63;;;23.00;99.90;;;;;;5072175;28;20498;-57
2022/08/19 10:46:32;;;;;;;15.20;13.60;;;23.10;99.90;;;;;;5072375;28;20435;-57
2022/08/19 10:49:01;;;;;;;13.47;12.07;;;23.20;99.90;;;;;;5072599;28;20462;-56
2022/08/19 10:54:13;;;;;;;14.30;12.80;;;23.60;99.90;;;;;;5072393;28;20542;-56
2022/08/19 10:56:51;;;;;;;14.50;12.67;;;23.40;99.90;;;;;;5072698;28;20444;-57
2022/08/19 10:59:21;;;;;;;13.50;12.13;;;23.50;99.90;;;;;;5072400;28;20509;-57
2022/08/19 11:01:49;;;;;;;12.20;11.10;;;23.40;99.90;;;;;;5071989;28;20885;-57
2022/08/19 11:04:19;;;;;;;11.73;10.60;;;23.60;99.90;;;;;;5072187;28;20511;-58
2022/08/19 11:06:47;;;;;;;13.47;11.90;;;23.70;99.90;;;;;;5073726;28;20448;-56
2022/08/19 11:09:15;;;;;;;12.13;10.90;;;23.50;99.90;;;;;;5075852;28;20444;-57
2022/08/19 11:11:42;;;;;;;11.37;10.33;;;23.40;99.90;;;;;;5075558;28;20494;-56
2022/08/19 11:14:10;;;;;;;12.00;10.83;;;23.40;99.90;;;;;;5075893;28;20474;-56
2022/08/19 11:16:39;;;;;;;12.30;11.10;;;23.40;99.90;;;;;;5075831;28;20783;-57
2022/08/19 11:19:07;;;;;;;13.23;11.70;;;23.50;99.90;;;;;;5075559;28;20440;-57
2022/08/19 11:21:38;;;;;;;12.07;10.97;;;23.60;99.90;;;;;;5075202;28;20460;-57
2022/08/19 11:24:09;;;;;;;13.20;10.80;;;23.70;99.90;;;;;;5075568;28;21006;-57
2022/08/19 11:26:37;;;;;;;10.90;9.90;;;23.80;99.90;;;;;;5075772;28;20429;-56
2022/08/19 11:29:11;;;;;;;14.83;10.97;;;24.00;99.90;;;;;;5075391;28;21029;-56
2022/08/19 11:31:39;;;;;;;11.43;10.20;;;23.90;99.90;;;;;;5075262;28;20471;-56
2022/08/19 11:34:10;;;;;;;10.87;9.97;;;24.00;99.90;;;;;;5075381;28;20450;-56
2022/08/19 11:36:42;;;;;;;12.07;10.87;;;24.00;99.90;;;;;;5075347;28;20428;-56
2022/08/19 11:39:14;;;;;;;10.87;9.87;;;24.00;99.90;;;;;;5075637;28;20435;-57
2022/08/19 11:41:41;;;;;;;11.50;10.30;;;24.00;99.90;;;;;;5075508;28;20971;-57
2022/08/19 11:44:09;;;;;;;10.83;9.93;;;24.00;99.90;;;;;;5075163;28;20799;-56
2022/08/19 11:46:37;;;;;;;11.67;10.43;;;24.00;99.90;;;;;;5075334;28;20444;-60
2022/08/19 11:49:07;;;;;;;10.77;9.77;;;24.00;99.90;;;;;;5074978;28;20459;-57
2022/08/19 11:51:34;;;;;;;11.20;10.20;;;24.10;99.90;;;;;;5075233;28;20468;-56
2022/08/19 11:54:06;;;;;;;10.77;9.87;;;24.20;99.90;;;;;;5075099;28;20486;-56
2022/08/19 11:56:33;;;;;;;14.37;10.60;;;24.20;99.90;;;;;;5075043;28;20433;-56
2022/08/19 11:59:02;;;;;;;11.03;10.00;;;24.30;99.90;;;;;;5075156;28;20433;-57
2022/08/19 12:01:29;;;;;;;10.70;9.67;;;24.30;99.90;;;;;;5075248;28;20555;-57
2022/08/19 12:03:58;;;;;;;9.27;8.57;;;24.30;99.90;;;;;;5074524;28;20444;-57
2022/08/19 12:06:28;;;;;;;10.10;9.20;;;24.30;99.90;;;;;;5074743;28;20543;-57
2022/08/19 12:08:56;;;;;;;11.30;9.83;;;24.30;99.90;;;;;;5074553;28;20475;-57
2022/08/19 12:11:25;;;;;;;11.93;10.77;;;24.30;99.90;;;;;;5074221;28;20482;-57
2022/08/19 12:13:54;;;;;;;10.70;9.63;;;24.20;99.90;;;;;;5074436;28;20491;-57
2022/08/19 12:16:23;;;;;;;12.70;9.93;;;24.10;99.90;;;;;;5074778;28;20444;-57
2022/08/19 12:18:50;;;;;;;11.97;10.77;;;24.20;99.90;;;;;;5074071;28;20455;-57
2022/08/19 12:21:21;;;;;;;12.17;10.90;;;24.20;99.90;;;;;;5074442;28;20496;-57
2022/08/19 12:23:49;;;;;;;11.20;10.17;;;24.20;99.90;;;;;;5074058;28;20429;-57
2022/08/19 12:26:17;;;;;;;12.43;11.13;;;24.30;99.90;;;;;;5074445;28;20932;-56
2022/08/19 12:28:47;;;;;;;11.00;10.00;;;24.20;99.90;;;;;;5074505;28;20448;-57
2022/08/19 12:31:16;;;;;;;11.43;10.40;;;24.30;99.90;;;;;;5074319;28;20468;-56
2022/08/19 12:33:43;;;;;;;10.00;9.07;;;24.20;99.90;;;;;;5073954;28;20487;-57
2022/08/19 12:36:13;;;;;;;11.20;10.23;;;24.10;99.90;;;;;;5074026;28;20456;-57
2022/08/19 12:38:41;;;;;;;11.03;10.00;;;24.10;99.90;;;;;;5074018;28;20539;-56
2022/08/19 12:41:11;;;;;;;10.73;9.70;;;24.00;99.90;;;;;;5074067;28;20996;-56
2022/08/19 12:43:39;;;;;;;14.10;10.93;;;24.00;99.90;;;;;;5073771;28;20472;-56
2022/08/19 12:46:08;;;;;;;12.03;10.87;;;24.00;99.90;;;;;;5074092;28;20449;-56
2022/08/19 12:48:39;;;;;;;13.53;12.23;;;24.10;99.90;;;;;;5073777;28;20444;-56
2022/08/19 12:51:09;;;;;;;13.90;12.50;;;24.00;99.90;;;;;;5074160;28;20460;-56
2022/08/19 12:53:37;;;;;;;12.07;10.50;;;24.00;99.90;;;;;;5073850;28;20567;-56